Bucoda, WA

12:59 AM PDT on August 23, 2014 (GMT -0700)
Old Mill Estates | Change Station
CLOSE
Current Station
Personal Weather Station
Location: Bucoda, WA
Elevation: 233 ft
Nearby Weather Stations

Elev 233 ft 46.79 °N, 122.87 °W | Updated 2 seconds ago

Clear
Clear
52.9 °F
Feels Like 52.9 °F
N
0.0
Wind Variable Wind from West
Gusts 0.0 mph

Today
High -- | Low -- °F
--% Chance of Precip.
Yesterday
High -- | Low -- °F
Precip. -- in
6:19 AM 8:07 PM
Waning Crescent, 5% visible
Pressure 30.10 in
Visibility 10.0 miles
Clouds Clear
Dew Point 52 °F
Humidity 97%
Rainfall 0.00 in
Snow Depth Not available.
UV 0 out of 12
Pollen 3.00 out of 12
Air Quality Not available.
Flu Activity Not available.
METAR KCLS 230715Z AUTO 00000KT 10SM CLR 14/14 A3010 RMK AO2

More Conditions Fewer Conditions

Pressure 30.10 in
Visibility 10.0 miles
Clouds Clear
Dew Point 52 °F
Humidity 97%
Rainfall 0.00 in
Snow Depth Not available.
UV 0 out of 12
Pollen 3.00 out of 12
Air Quality Not available.
Flu Activity Not available.
METAR KCLS 230715Z AUTO 00000KT 10SM CLR 14/14 A3010 RMK AO2

More Conditions Fewer Conditions

10-Day Weather Forecast

Almanac

Astronomy

Aug. 23, 2014 Rise Set
Actual Time 6:19 AM PDT 8:07 PM PDT
Civil Twilight 5:47 AM PDT 8:39 PM PDT
Nautical Twilight 5:07 AM PDT 9:19 PM PDT
Astronomical Twilight 4:24 AM PDT 10:02 PM PDT
Moon 4:38 AM PDT 6:55 PM PDT
Length of Visible Light 14h 52m
Length of Day
13h 47m
Tomorrow will be 3m 8s shorter.
Waning Crescent, 5% of the Moon is Illuminated
Today
Waning Crescent
Aug 25
New
Sep 2
First Quarter
Sep 8
Full
Sep 15
Last Quarter

Today's Extremes

State Highs State Lows

Community

WunderPhotos

Upload Photos

1,746,384 photos uploaded!

WunderBlogs® & News

By Dr. Jeff Masters
Director of Meteorology, Weather Underground
By Kari Strenfel
Meteorologist, Weather Underground
By Christopher C. Burt
Weather Historian, Weather Underground
August 23, 2014
August 23, 2014
August 22, 2014

Nearby

Snow Depth

Station Depth Elevation
Burnt Mountain 1 in 4200 ft
Spirit Lake 0 in 3120 ft
Sheep Canyon 0 in 4030 ft
Swift Creek 0 in 3770 ft
Lone Pine 0 in 3800 ft

Earthquake Activity

City Distance Mag. Time & Date
No recent earthquake activity has been reported nearby.
Minimum magnitude displayed is 2.5.

Coastal Water Temperatures

Place Temperature
Port Townsend, WA 53.1 °F
Seattle, WA 57.0 °F
Friday Harbor, WA 54.0 °F
Tacoma, WA 55.9 °F

Nearby Weather Stations